createdAt,value
2022-08-05T00:02:27.045Z,15.03
2022-08-05T00:04:56.054Z,15.02
2022-08-05T00:07:58.894Z,15.10
2022-08-05T00:10:09.913Z,14.97
2022-08-05T00:12:55.914Z,14.98
2022-08-05T00:15:55.350Z,14.87
2022-08-05T00:18:09.326Z,14.80
2022-08-05T00:20:48.870Z,14.74
2022-08-05T00:23:15.400Z,14.66
2022-08-05T00:25:46.057Z,14.65
2022-08-05T00:28:13.337Z,14.58
2022-08-05T00:30:43.976Z,14.52
2022-08-05T00:34:41.974Z,14.49
2022-08-05T00:36:16.153Z,14.45
2022-08-05T00:38:44.192Z,14.39
2022-08-05T00:41:11.689Z,14.36
2022-08-05T00:43:41.750Z,14.33
2022-08-05T00:46:16.035Z,14.25
2022-08-05T00:48:51.132Z,14.22
2022-08-05T00:51:50.994Z,14.20
2022-08-05T00:54:05.850Z,14.15
2022-08-05T00:56:32.285Z,14.10
2022-08-05T00:58:59.214Z,14.05
2022-08-05T01:01:42.984Z,14.07
2022-08-05T01:04:13.824Z,14.03
2022-08-05T01:06:40.942Z,14.00
2022-08-05T01:09:10.122Z,13.98
2022-08-05T01:11:39.310Z,13.98
2022-08-05T01:14:09.237Z,14.00
2022-08-05T01:16:52.452Z,14.05
2022-08-05T01:19:21.647Z,14.07
2022-08-05T01:22:15.330Z,14.10
2022-08-05T01:25:04.658Z,14.09
2022-08-05T01:27:54.994Z,14.20
2022-08-05T01:30:34.461Z,14.24
2022-08-05T01:33:06.176Z,14.22
2022-08-05T01:35:51.318Z,14.21
2022-08-05T01:38:24.851Z,14.23
2022-08-05T01:40:56.950Z,14.22
2022-08-05T01:43:24.913Z,14.28
2022-08-05T01:45:56.248Z,14.29
2022-08-05T01:48:24.964Z,14.29
2022-08-05T01:50:53.137Z,14.30
2022-08-05T01:53:55.164Z,14.32
2022-08-05T01:56:11.057Z,14.24
2022-08-05T01:58:45.097Z,14.23
2022-08-05T02:01:14.553Z,14.28
2022-08-05T02:03:46.452Z,14.28
2022-08-05T02:06:37.931Z,14.29
2022-08-05T02:08:59.817Z,14.23
2022-08-05T02:11:36.973Z,14.15
2022-08-05T02:14:12.512Z,14.09
2022-08-05T02:16:45.803Z,14.14
2022-08-05T02:19:27.762Z,14.05
2022-08-05T02:22:01.541Z,14.07
2022-08-05T02:24:34.136Z,14.16
2022-08-05T02:27:09.937Z,14.16
2022-08-05T02:29:59.022Z,14.08
2022-08-05T02:32:30.844Z,14.05
2022-08-05T02:35:09.596Z,14.02
2022-08-05T02:37:47.648Z,14.01
2022-08-05T02:40:16.973Z,14.07
2022-08-05T02:42:53.043Z,14.10
2022-08-05T02:45:24.078Z,14.10
2022-08-05T02:48:06.943Z,14.15
2022-08-05T02:50:44.037Z,14.17
2022-08-05T02:53:12.052Z,14.24
2022-08-05T02:55:55.110Z,14.20
2022-08-05T02:58:28.918Z,14.13
2022-08-05T03:00:58.865Z,14.08
2022-08-05T03:03:28.259Z,14.07
2022-08-05T03:06:54.597Z,14.03
2022-08-05T03:08:52.161Z,13.96
2022-08-05T03:11:55.509Z,14.01
2022-08-05T03:14:13.253Z,14.02
2022-08-05T03:16:40.601Z,13.99
2022-08-05T03:19:16.870Z,13.94
2022-08-05T03:21:49.358Z,13.89
2022-08-05T03:24:26.817Z,13.85
2022-08-05T03:26:56.330Z,13.78
2022-08-05T03:29:24.002Z,13.72
2022-08-05T03:31:56.462Z,13.65
2022-08-05T03:34:25.065Z,13.61
2022-08-05T03:36:53.733Z,13.60
2022-08-05T03:39:27.189Z,13.60
2022-08-05T03:41:56.324Z,13.59
2022-08-05T03:44:23.639Z,13.54
2022-08-05T03:46:50.418Z,13.49
2022-08-05T03:49:16.901Z,13.43
2022-08-05T03:52:38.248Z,13.42
2022-08-05T03:56:05.199Z,13.38
2022-08-05T03:57:58.668Z,13.42
2022-08-05T04:00:31.227Z,13.40
2022-08-05T04:03:04.514Z,13.44
2022-08-05T04:05:34.707Z,13.44
2022-08-05T04:08:03.735Z,13.49
2022-08-05T04:10:37.897Z,13.50
2022-08-05T04:13:06.256Z,13.50
2022-08-05T04:15:36.211Z,13.47
2022-08-05T04:18:09.718Z,13.43
2022-08-05T04:20:38.466Z,13.41
2022-08-05T04:23:12.549Z,13.41
2022-08-05T04:26:00.674Z,13.39
2022-08-05T04:28:30.526Z,13.40
2022-08-05T04:30:57.603Z,13.37
2022-08-05T04:33:54.561Z,13.34
2022-08-05T04:36:38.516Z,13.26
2022-08-05T04:38:57.641Z,13.24
2022-08-05T04:41:36.837Z,13.22
2022-08-05T04:44:09.550Z,13.18
2022-08-05T04:46:37.170Z,13.17
2022-08-05T04:49:05.328Z,13.18
2022-08-05T04:51:38.907Z,13.17
2022-08-05T04:54:05.486Z,13.17
2022-08-05T04:56:36.975Z,13.17
2022-08-05T04:59:21.466Z,13.28
2022-08-05T05:02:35.756Z,13.30
2022-08-05T05:04:47.683Z,13.46
2022-08-05T05:07:17.024Z,13.59
2022-08-05T05:09:44.441Z,13.88
2022-08-05T05:12:11.620Z,14.06
2022-08-05T05:14:38.189Z,14.22
2022-08-05T05:17:17.744Z,14.31
2022-08-05T05:19:50.102Z,14.44
2022-08-05T05:22:23.923Z,14.63
2022-08-05T05:24:58.477Z,14.84
2022-08-05T05:27:44.676Z,15.07
2022-08-05T05:30:15.508Z,15.31
2022-08-05T05:32:55.856Z,15.47
2022-08-05T05:35:23.002Z,15.62
2022-08-05T05:38:00.322Z,15.66
2022-08-05T05:40:29.292Z,15.62
2022-08-05T05:42:57.362Z,15.69
2022-08-05T05:45:24.614Z,15.73
2022-08-05T05:48:05.454Z,15.78
2022-08-05T05:50:32.700Z,15.76
2022-08-05T05:53:00.518Z,15.77
2022-08-05T05:55:51.689Z,15.92
2022-08-05T05:58:13.462Z,16.16
2022-08-05T06:00:40.711Z,16.17
2022-08-05T06:03:39.993Z,16.59
2022-08-05T06:05:58.701Z,16.84
2022-08-05T06:08:31.640Z,16.97
2022-08-05T06:10:59.849Z,17.13
2022-08-05T06:13:26.917Z,17.17
2022-08-05T06:16:30.901Z,17.32
2022-08-05T06:18:45.059Z,17.60
2022-08-05T06:21:18.628Z,17.67
2022-08-05T06:23:45.398Z,17.37
2022-08-05T06:26:20.977Z,17.17
2022-08-05T06:28:48.158Z,17.16
2022-08-05T06:31:18.125Z,17.33
2022-08-05T06:34:07.700Z,17.85
2022-08-05T06:36:45.999Z,17.95
2022-08-05T06:39:21.802Z,18.16
2022-08-05T06:41:49.692Z,18.35
2022-08-05T06:44:18.797Z,18.34
2022-08-05T06:46:51.074Z,18.55
2022-08-05T06:49:17.812Z,18.59
2022-08-05T06:51:45.673Z,18.91
2022-08-05T06:54:19.115Z,18.99
2022-08-05T06:56:55.143Z,18.66
2022-08-05T06:59:38.784Z,18.42
2022-08-05T07:02:08.788Z,18.66
2022-08-05T07:04:35.199Z,18.92
2022-08-05T07:07:03.211Z,19.33
2022-08-05T07:09:37.441Z,19.15
2022-08-05T07:12:07.701Z,19.27
2022-08-05T07:14:53.975Z,19.33
2022-08-05T07:18:00.227Z,19.14
2022-08-05T07:22:54.379Z,18.40
2022-08-05T07:25:53.878Z,18.09
2022-08-05T07:28:11.518Z,17.85
2022-08-05T07:30:39.916Z,17.80
2022-08-05T07:33:10.639Z,17.97
2022-08-05T07:36:04.969Z,18.45
2022-08-05T07:38:34.292Z,19.00
2022-08-05T07:42:08.399Z,19.03
2022-08-05T07:43:56.242Z,18.62
2022-08-05T07:46:25.319Z,18.30
2022-08-05T07:49:01.834Z,18.66
2022-08-05T07:51:40.716Z,19.17
2022-08-05T07:54:14.931Z,18.97
2022-08-05T07:57:01.197Z,18.85
2022-08-05T07:59:39.117Z,19.28
2022-08-05T08:02:15.624Z,19.14
2022-08-05T08:04:48.602Z,19.20
2022-08-05T08:07:15.810Z,19.53
2022-08-05T08:09:43.005Z,19.69
2022-08-05T08:12:20.986Z,20.18
2022-08-05T08:14:56.578Z,20.37
2022-08-05T08:17:23.572Z,20.70
2022-08-05T08:20:44.086Z,20.75
2022-08-05T08:22:37.023Z,21.16
2022-08-05T08:25:16.062Z,21.59
2022-08-05T08:27:45.009Z,20.78
2022-08-05T08:30:27.602Z,20.19
2022-08-05T08:33:02.592Z,19.79
2022-08-05T08:35:35.262Z,19.93
2022-08-05T08:38:08.548Z,19.77
2022-08-05T08:40:39.466Z,19.48
2022-08-05T08:45:16.839Z,19.48
2022-08-05T08:45:55.008Z,19.46
2022-08-05T08:49:03.316Z,19.34
2022-08-05T08:52:02.313Z,19.84
2022-08-05T08:53:56.097Z,20.18
2022-08-05T08:56:23.604Z,20.04
2022-08-05T08:58:53.903Z,19.85
2022-08-05T09:01:20.422Z,19.77
2022-08-05T09:03:54.352Z,19.52
2022-08-05T09:06:28.255Z,19.49
2022-08-05T09:08:58.155Z,19.22
2022-08-05T09:11:51.135Z,19.10
2022-08-05T09:14:56.899Z,18.88
2022-08-05T09:17:00.145Z,18.99
2022-08-05T09:19:27.682Z,18.84
2022-08-05T09:22:21.890Z,18.74
2022-08-05T09:24:42.542Z,18.52
2022-08-05T09:27:09.632Z,18.54
2022-08-05T09:29:47.958Z,18.44
2022-08-05T09:32:40.886Z,18.42
2022-08-05T09:35:09.835Z,18.38
2022-08-05T09:38:12.480Z,18.48
2022-08-05T09:40:37.893Z,18.52
2022-08-05T09:43:07.707Z,18.51
2022-08-05T09:46:07.605Z,18.40
2022-08-05T09:48:34.228Z,18.40
2022-08-05T09:51:03.418Z,18.55
2022-08-05T09:53:54.669Z,19.04
2022-08-05T09:56:27.205Z,19.04
2022-08-05T09:59:07.313Z,19.07
2022-08-05T10:01:36.811Z,18.94
2022-08-05T10:04:16.142Z,18.79
2022-08-05T10:06:59.056Z,19.07
2022-08-05T10:09:29.361Z,18.99
2022-08-05T10:12:31.103Z,18.84
2022-08-05T10:15:13.600Z,18.78
2022-08-05T10:17:47.177Z,18.84
2022-08-05T10:20:23.849Z,18.90
2022-08-05T10:22:51.924Z,19.05
2022-08-05T10:25:19.481Z,19.32
2022-08-05T10:28:09.736Z,19.58
2022-08-05T10:32:49.465Z,19.59
2022-08-05T10:33:24.132Z,19.65
2022-08-05T10:35:59.809Z,19.63
2022-08-05T10:38:28.521Z,19.86
2022-08-05T10:41:04.607Z,19.78
2022-08-05T10:43:47.445Z,20.07
2022-08-05T10:46:18.984Z,19.94
2022-08-05T10:49:01.473Z,20.12
2022-08-05T10:51:53.050Z,20.07
2022-08-05T10:55:01.776Z,20.01
2022-08-05T10:57:30.909Z,20.21
2022-08-05T11:00:17.926Z,20.09
2022-08-05T11:03:25.002Z,20.31
2022-08-05T11:06:15.888Z,20.12
2022-08-05T11:09:16.916Z,20.08
2022-08-05T11:11:53.318Z,19.86
2022-08-05T11:14:57.778Z,19.60
2022-08-05T11:17:57.639Z,19.30
2022-08-05T11:20:43.669Z,19.34
2022-08-05T11:24:05.602Z,19.62
2022-08-05T11:26:32.703Z,19.57
2022-08-05T11:29:13.466Z,20.03
2022-08-05T11:31:54.242Z,19.86
2022-08-05T11:34:37.337Z,19.94
2022-08-05T11:37:55.141Z,19.92
2022-08-05T11:40:00.479Z,19.73
2022-08-05T11:42:32.796Z,19.88
2022-08-05T11:45:05.978Z,19.99
2022-08-05T11:47:50.635Z,19.95
2022-08-05T11:50:21.583Z,19.90
2022-08-05T11:52:48.866Z,19.90
2022-08-05T11:55:16.751Z,20.30
2022-08-05T11:58:09.649Z,21.71
2022-08-05T12:00:38.124Z,21.78
2022-08-05T12:03:29.309Z,22.05
2022-08-05T12:06:03.114Z,21.37
2022-08-05T12:08:33.027Z,21.15
2022-08-05T12:11:05.494Z,20.83
2022-08-05T12:13:48.973Z,21.08
2022-08-05T12:16:18.910Z,21.08
2022-08-05T12:18:52.280Z,20.95
2022-08-05T12:21:26.588Z,21.18
2022-08-05T12:24:04.381Z,21.08
2022-08-05T12:26:44.081Z,21.00
2022-08-05T12:29:23.544Z,20.88
2022-08-05T12:31:55.503Z,21.28
2022-08-05T12:34:28.682Z,21.00
2022-08-05T12:37:10.656Z,20.37
2022-08-05T12:39:41.033Z,20.48
2022-08-05T12:42:14.779Z,20.75
2022-08-05T12:44:43.111Z,20.97
2022-08-05T12:47:22.454Z,21.37
2022-08-05T12:50:02.300Z,21.57
2022-08-05T12:52:38.641Z,21.93
2022-08-05T12:55:23.833Z,22.32
2022-08-05T12:58:50.262Z,23.11
2022-08-05T13:02:00.939Z,22.78
2022-08-05T13:03:34.330Z,22.83
2022-08-05T13:06:10.416Z,23.27
2022-08-05T13:08:38.736Z,22.80
2022-08-05T13:11:06.446Z,22.46
2022-08-05T13:14:05.134Z,22.31
2022-08-05T13:16:25.280Z,22.71
2022-08-05T13:18:59.674Z,22.84
2022-08-05T13:21:28.363Z,23.03
2022-08-05T13:24:05.245Z,23.58
2022-08-05T13:26:31.625Z,23.59
2022-08-05T13:28:58.992Z,23.00
2022-08-05T13:31:33.806Z,23.08
2022-08-05T13:34:25.095Z,23.14
2022-08-05T13:36:53.249Z,23.92
2022-08-05T13:40:12.878Z,24.44
2022-08-05T13:42:06.621Z,24.01
2022-08-05T13:44:34.634Z,24.05
2022-08-05T13:47:08.654Z,24.30
2022-08-05T13:49:35.894Z,24.14
2022-08-05T13:52:15.784Z,25.13
2022-08-05T13:54:42.381Z,24.92
2022-08-05T13:57:20.418Z,24.88
2022-08-05T13:59:57.519Z,24.21
2022-08-05T14:02:26.590Z,24.65
2022-08-05T14:05:11.510Z,25.55
2022-08-05T14:08:02.706Z,25.31
2022-08-05T14:10:28.678Z,24.91
2022-08-05T14:12:57.015Z,22.93
2022-08-05T14:16:07.450Z,23.98
2022-08-05T14:18:15.188Z,25.05
2022-08-05T14:20:47.069Z,24.67
2022-08-05T14:23:25.068Z,24.18
2022-08-05T14:25:58.436Z,23.51
2022-08-05T14:28:28.974Z,22.83
2022-08-05T14:30:56.747Z,23.96
2022-08-05T14:33:24.115Z,24.89
2022-08-05T14:35:52.015Z,25.83
2022-08-05T14:38:32.117Z,24.08
2022-08-05T14:41:05.839Z,24.03
2022-08-05T14:44:02.271Z,25.98
2022-08-05T14:46:21.791Z,26.24
2022-08-05T14:48:49.142Z,25.72
2022-08-05T14:51:16.710Z,26.60
2022-08-05T14:53:44.925Z,23.40
2022-08-05T14:56:12.141Z,21.71
2022-08-05T14:58:47.757Z,23.22
2022-08-05T15:01:47.281Z,24.78
2022-08-05T15:04:11.675Z,26.04
2022-08-05T15:06:39.117Z,23.00
2022-08-05T15:09:07.056Z,21.46
2022-08-05T15:11:53.148Z,20.95
2022-08-05T15:14:34.642Z,20.72
2022-08-05T15:17:10.005Z,22.65
2022-08-05T15:19:55.151Z,23.73
2022-08-05T15:22:21.761Z,22.41
2022-08-05T15:24:54.143Z,23.14
2022-08-05T15:27:20.637Z,24.85
2022-08-05T15:29:47.036Z,26.55
2022-08-05T15:32:21.896Z,25.88
2022-08-05T15:34:54.001Z,25.01
2022-08-05T15:38:32.353Z,25.06
2022-08-05T15:40:59.594Z,24.82
2022-08-05T15:42:59.768Z,24.18
2022-08-05T15:45:38.362Z,22.92
2022-08-05T15:48:05.608Z,25.13
2022-08-05T15:50:33.315Z,25.51
2022-08-05T15:53:04.101Z,26.12
2022-08-05T15:56:02.839Z,26.24
2022-08-05T15:58:18.522Z,26.20
2022-08-05T16:01:03.563Z,26.16
2022-08-05T16:03:32.845Z,26.19
2022-08-05T16:06:01.030Z,25.91
2022-08-05T16:08:30.643Z,26.26
2022-08-05T16:10:57.729Z,26.50
2022-08-05T16:13:24.182Z,27.08
2022-08-05T16:16:01.056Z,27.47
2022-08-05T16:18:28.953Z,26.44
2022-08-05T16:20:55.691Z,26.53
2022-08-05T16:23:22.147Z,23.28
2022-08-05T16:25:49.777Z,20.74
2022-08-05T16:28:22.260Z,21.65
2022-08-05T16:30:52.070Z,20.80
2022-08-05T16:33:19.401Z,19.63
2022-08-05T16:35:49.893Z,20.86
2022-08-05T16:38:25.205Z,20.30
2022-08-05T16:41:00.850Z,19.50
2022-08-05T16:43:36.738Z,20.28
2022-08-05T16:46:12.809Z,19.77
2022-08-05T16:48:55.554Z,20.29
2022-08-05T16:51:22.182Z,21.85
2022-08-05T16:54:04.738Z,22.93
2022-08-05T16:56:36.370Z,20.96
2022-08-05T16:59:08.099Z,20.88
2022-08-05T17:01:53.008Z,19.86
2022-08-05T17:04:21.442Z,20.31
2022-08-05T17:06:53.338Z,22.25
2022-08-05T17:09:20.220Z,23.53
2022-08-05T17:11:49.002Z,24.95
2022-08-05T17:14:22.536Z,25.41
2022-08-05T17:17:04.959Z,25.03
2022-08-05T17:19:31.443Z,25.03
2022-08-05T17:21:58.463Z,25.56
2022-08-05T17:24:35.107Z,25.13
2022-08-05T17:27:09.057Z,23.48
2022-08-05T17:29:41.363Z,20.99
2022-08-05T17:32:16.744Z,23.76
2022-08-05T17:34:53.110Z,24.58
2022-08-05T17:37:36.123Z,26.14
2022-08-05T17:40:10.143Z,25.65
2022-08-05T17:42:37.821Z,26.17
2022-08-05T17:45:17.981Z,26.96
2022-08-05T17:47:53.607Z,27.70
2022-08-05T17:50:28.826Z,25.83
2022-08-05T17:53:00.135Z,25.71
2022-08-05T17:55:37.976Z,26.03
2022-08-05T17:58:11.139Z,26.13
2022-08-05T18:00:45.116Z,23.56
2022-08-05T18:06:11.205Z,19.13
2022-08-05T18:08:44.174Z,21.41
2022-08-05T18:11:23.184Z,20.90
2022-08-05T18:13:51.811Z,22.89
2022-08-05T18:16:20.375Z,20.97
2022-08-05T18:18:47.856Z,19.30
2022-08-05T18:21:20.112Z,18.56
2022-08-05T18:23:49.152Z,18.00
2022-08-05T18:26:20.613Z,17.59
2022-08-05T18:28:49.218Z,17.44
2022-08-05T18:31:19.485Z,17.32
2022-08-05T18:33:51.506Z,17.17
2022-08-05T18:36:19.257Z,17.01
2022-08-05T18:38:46.238Z,16.94
2022-08-05T18:41:56.461Z,17.02
2022-08-05T18:44:05.820Z,16.87
2022-08-05T18:46:33.219Z,16.64
2022-08-05T18:49:20.426Z,16.59
2022-08-05T18:52:08.847Z,16.56
2022-08-05T18:54:41.185Z,16.38
2022-08-05T18:57:15.205Z,16.32
2022-08-05T19:00:01.655Z,16.14
2022-08-05T19:02:30.108Z,16.02
2022-08-05T19:05:02.751Z,15.83
2022-08-05T19:07:47.825Z,15.57
2022-08-05T19:10:15.560Z,15.48
2022-08-05T19:12:43.193Z,15.41
2022-08-05T19:15:25.029Z,15.32
2022-08-05T19:18:10.406Z,15.24
2022-08-05T19:20:41.474Z,15.12
2022-08-05T19:24:03.905Z,15.04
2022-08-05T19:26:02.102Z,15.00
2022-08-05T19:28:30.065Z,14.93
2022-08-05T19:30:56.706Z,14.84
2022-08-05T19:33:35.195Z,14.83
2022-08-05T19:36:02.493Z,14.81
2022-08-05T19:38:28.962Z,14.80
2022-08-05T19:40:55.367Z,14.76
2022-08-05T19:44:04.545Z,14.74
2022-08-05T19:46:16.658Z,14.68
2022-08-05T19:48:55.302Z,14.68
2022-08-05T19:52:05.889Z,14.72
2022-08-05T19:54:21.794Z,14.68
2022-08-05T19:56:54.032Z,14.74
2022-08-05T19:59:51.292Z,14.92
2022-08-05T20:02:07.193Z,14.96
2022-08-05T20:04:33.605Z,15.03
2022-08-05T20:07:00.041Z,15.08
2022-08-05T20:09:28.549Z,15.05
2022-08-05T20:12:17.412Z,14.95
2022-08-05T20:14:45.471Z,14.98
2022-08-05T20:17:16.283Z,14.91
2022-08-05T20:19:42.954Z,14.91
2022-08-05T20:22:09.740Z,14.87
2022-08-05T20:24:39.101Z,14.74
2022-08-05T20:27:10.990Z,14.71
2022-08-05T20:29:38.205Z,14.66
2022-08-05T20:32:06.510Z,14.56
2022-08-05T20:34:32.877Z,14.54
2022-08-05T20:37:00.712Z,14.58
2022-08-05T20:39:35.468Z,14.57
2022-08-05T20:42:02.227Z,14.53
2022-08-05T20:44:30.256Z,14.42
2022-08-05T20:47:03.257Z,14.41
2022-08-05T20:49:30.386Z,14.35
2022-08-05T20:52:04.728Z,14.35
2022-08-05T20:54:42.873Z,14.29
2022-08-05T20:57:41.985Z,14.24
2022-08-05T21:00:21.155Z,14.12
2022-08-05T21:02:57.615Z,14.07
2022-08-05T21:05:24.484Z,14.12
2022-08-05T21:07:52.109Z,14.07
2022-08-05T21:10:19.007Z,14.05
2022-08-05T21:12:58.363Z,14.01
2022-08-05T21:15:33.883Z,13.98
2022-08-05T21:18:00.716Z,13.97
2022-08-05T21:20:32.651Z,14.01
2022-08-05T21:23:00.043Z,13.99
2022-08-05T21:25:33.857Z,14.00
2022-08-05T21:28:01.729Z,13.93
2022-08-05T21:30:28.184Z,14.04
2022-08-05T21:32:55.092Z,14.04
2022-08-05T21:35:29.568Z,14.10
2022-08-05T21:37:57.265Z,14.14
2022-08-05T21:40:24.622Z,14.14
2022-08-05T21:42:53.592Z,14.04
2022-08-05T21:45:24.472Z,13.95
2022-08-05T21:47:56.672Z,14.00
2022-08-05T21:50:24.445Z,13.93
2022-08-05T21:52:50.908Z,13.88
2022-08-05T21:55:21.612Z,13.87
2022-08-05T21:58:05.823Z,13.95
2022-08-05T22:00:32.309Z,13.92
2022-08-05T22:02:59.674Z,13.84
2022-08-05T22:05:27.290Z,13.74
2022-08-05T22:07:58.714Z,13.70
2022-08-05T22:10:29.191Z,13.54
2022-08-05T22:12:58.992Z,13.44
2022-08-05T22:16:01.097Z,13.51
2022-08-05T22:18:21.592Z,13.48
2022-08-05T22:20:52.508Z,13.54
2022-08-05T22:24:01.946Z,13.54
2022-08-05T22:26:42.818Z,13.46
2022-08-05T22:29:17.418Z,13.47
2022-08-05T22:31:45.314Z,13.42
2022-08-05T22:34:20.146Z,13.26
2022-08-05T22:36:54.982Z,13.30
2022-08-05T22:39:22.505Z,13.20
2022-08-05T22:42:10.076Z,13.13
2022-08-05T22:44:35.333Z,13.00
2022-08-05T22:47:04.972Z,12.92
2022-08-05T22:50:18.205Z,12.88
2022-08-05T22:52:30.210Z,12.94
2022-08-05T22:54:59.497Z,12.70
2022-08-05T22:57:26.550Z,12.55
2022-08-05T22:59:54.224Z,12.49
2022-08-05T23:02:29.421Z,12.43
2022-08-05T23:04:57.948Z,12.32
2022-08-05T23:07:28.185Z,12.29
2022-08-05T23:10:01.751Z,12.29
2022-08-05T23:12:32.644Z,12.38
2022-08-05T23:15:01.207Z,12.25
2022-08-05T23:17:32.668Z,12.11
2022-08-05T23:20:02.378Z,12.09
2022-08-05T23:22:29.477Z,12.12
2022-08-05T23:24:57.318Z,12.34
2022-08-05T23:27:24.204Z,12.31
2022-08-05T23:29:57.943Z,12.32
2022-08-05T23:32:24.744Z,12.47
2022-08-05T23:34:53.815Z,12.53
2022-08-05T23:37:20.289Z,12.54
2022-08-05T23:39:54.243Z,12.40
2022-08-05T23:42:23.359Z,12.27
2022-08-05T23:44:55.511Z,12.24
2022-08-05T23:47:21.900Z,12.20
2022-08-05T23:49:52.153Z,12.11
2022-08-05T23:52:32.534Z,12.07
2022-08-05T23:55:07.112Z,12.05
2022-08-05T23:57:36.852Z,12.08
